Search for airport 
image banner adimage banner adimage banner ad
image banner ad

25PA - The Washington Hospital Rooftop

Located in Washington, United States

ICAO - 25PA, IATA -

Data provided by Airmate  

General information

Coordinates: N40°10'59" W80°14'46"
Elevation is 1250 feet MSL.
Magnetic variation is -09° East
View others Airports in Pennsylvania

Operational data

Special qualification required
Current time UTC:
Current local time:
Weather at : KAFJ - Washington County ( 6 km )
METAR: KAFJ 182356Z AUTO 36003KT 10SM CLR 21/07 A3030 RMK AO2 SLP258 T02060072 10256 20206 58004
View NOTAMs / SUP AIP / TFR affecting this airport [VIEW]
Communications frequencies: [VIEW]

Runways:

Airport contact information

Address: Washington United States

Satellite view of 25PA